Mutum, Brazil
Current Conditions -  °F | °C
As of 3:00 PM on Thursday 23 Oct 2014 (Local Time) from SBSV Reporting Station
Few Clouds Few Clouds  
Wind Chill: 81°   Ceiling: Unl
Heat Index: 82°   Visibility: 6mi
Dew Point: 64°   Wind: 10mph
Humidity: 58%   Direction: 140°SE
Pressure: 29.97"   Gusts: NA
Location:  12.88°S, 39.13°W
Report Text: SBSV 231800Z 14009KT 9999 FEW017 27/18 Q1015
Loading
Personal Weather Stations






























Interactive Weather Map New forecast layout! Learn more

10-Day Weather Forecast

Advertisements
Track Severe Weather on mobile